Time;durP1;ratioP1;P1;durP2;ratioP2;P2;SDS_P1;SDS_P2;PMS_P1;PMS_P2;Temp;Humidity;BMP_temperature;BMP_pressure;BME280_temperature;BME280_humidity;BME280_pressure;Samples;Min_cycle;Max_cycle;Signal;HPM_P1;HPM_P2
2021/10/31 00:09:44;;;;;;;22.23;11.27;;;;;;;9.67;62.96;100093.12;6785166;85;99119;-84
2021/10/31 00:19:46;;;;;;;19.57;11.20;;;;;;;9.64;63.26;100099.37;6781580;85;99180;-84
2021/10/31 00:29:47;;;;;;;26.33;10.68;;;;;;;9.60;63.71;100116.42;6764810;84;99014;-84
2021/10/31 00:39:47;;;;;;;23.73;12.30;;;;;;;9.55;64.09;100128.52;6781712;85;98845;-85
2021/10/31 00:49:48;;;;;;;19.60;11.23;;;;;;;9.52;64.29;100128.49;6762649;85;99056;-86
2021/10/31 00:59:49;;;;;;;20.37;11.27;;;;;;;9.48;64.70;100121.59;6762556;84;98943;-85
2021/10/31 01:10:07;;;;;;;20.30;11.60;;;;;;;9.44;65.09;100125.48;6775392;85;98698;-84
2021/10/31 01:20:26;;;;;;;21.47;11.27;;;;;;;9.40;65.89;100143.30;6716303;86;99022;-84
2021/10/31 01:30:55;;;;;;;25.77;13.50;;;;;;;9.33;66.15;100124.58;6728534;86;98905;-85
2021/10/31 01:41:27;;;;;;;43.70;27.00;;;;;;;9.31;66.41;100140.62;6713059;86;99085;-85
2021/10/31 01:51:41;;;;;;;29.03;16.60;;;;;;;9.24;67.18;100132.30;6705915;85;99139;-86
2021/10/31 02:01:45;;;;;;;25.57;13.97;;;;;;;9.19;67.94;100138.13;6698817;86;99169;-84
2021/10/31 02:11:46;;;;;;;;;;;;;;;9.12;68.27;100138.86;6722261;86;99175;-85
2021/10/31 02:21:55;;;;;;;28.80;15.37;;;;;;;9.02;69.41;100139.51;6711675;86;84178;-85
2021/10/31 02:31:56;;;;;;;26.57;15.47;;;;;;;8.96;69.10;100138.27;6716215;86;98968;-85
2021/10/31 02:41:57;;;;;;;23.87;15.47;;;;;;;8.88;69.63;100139.31;6735362;86;114502;-85
2021/10/31 02:52:02;;;;;;;24.63;14.97;;;;;;;8.81;70.16;100150.77;6748017;86;98908;-85
2021/10/31 03:02:04;;;;;;;25.90;16.60;;;;;;;8.76;71.02;100162.87;6714902;83;98789;-85
2021/10/31 03:12:08;;;;;;;27.57;16.83;;;;;;;8.72;71.21;100170.26;6726115;84;99224;-85
2021/10/31 03:22:09;;;;;;;29.67;16.20;;;;;;;8.67;71.41;100176.66;6719464;86;98990;-85
2021/10/31 03:32:10;;;;;;;29.80;17.57;;;;;;;8.60;71.52;100183.39;6726136;85;99450;-85
2021/10/31 03:42:13;;;;;;;29.40;17.47;;;;;;;8.55;71.92;100175.47;6720012;86;98934;-85
2021/10/31 03:52:14;;;;;;;25.93;15.60;;;;;;;8.50;72.00;100188.94;6725515;86;98929;-86
2021/10/31 04:02:14;;;;;;;29.67;16.50;;;;;;;8.43;72.21;100184.72;6717363;85;99553;-84
2021/10/31 04:12:15;;;;;;;30.03;17.10;;;;;;;8.38;72.48;100193.26;6730731;84;99185;-85
2021/10/31 04:22:16;;;;;;;26.40;16.20;;;;;;;8.34;72.69;100197.11;6714566;84;106906;-84
2021/10/31 04:32:17;;;;;;;28.40;17.10;;;;;;;8.30;73.17;100204.48;6707734;86;99506;-85
2021/10/31 04:42:18;;;;;;;30.53;15.90;;;;;;;8.27;73.45;100205.20;6725702;86;98930;-84
2021/10/31 04:52:19;;;;;;;27.93;16.23;;;;;;;8.30;73.46;100208.59;6715145;86;98932;-84
2021/10/31 05:02:20;;;;;;;28.20;16.37;;;;;;;8.29;73.78;100202.90;6740566;86;98941;-84
2021/10/31 05:12:22;;;;;;;30.27;17.33;;;;;;;8.26;73.83;100211.84;6723931;86;98974;-84
2021/10/31 05:22:22;;;;;;;26.97;17.00;;;;;;;8.24;74.17;100216.91;6784496;85;99641;-84
2021/10/31 05:32:24;;;;;;;32.87;18.33;;;;;;;8.15;74.30;100217.13;6768376;85;98923;-85
2021/10/31 05:42:25;;;;;;;28.50;16.57;;;;;;;8.17;74.55;100229.88;6779910;84;99217;-85
2021/10/31 05:52:26;;;;;;;28.57;15.53;;;;;;;8.14;74.67;100220.23;6762652;85;98801;-84
2021/10/31 06:02:27;;;;;;;31.03;17.17;;;;;;;8.11;74.73;100227.23;6773456;85;98905;-84
2021/10/31 06:12:27;;;;;;;29.03;16.63;;;;;;;8.08;74.77;100244.98;6757806;84;98923;-84
2021/10/31 06:22:28;;;;;;;29.72;15.10;;;;;;;8.08;74.87;100247.13;6767760;84;99453;-84
2021/10/31 06:32:29;;;;;;;26.17;14.53;;;;;;;8.09;75.04;100252.05;6764337;85;98971;-84
2021/10/31 06:42:31;;;;;;;25.93;13.97;;;;;;;8.11;75.01;100265.61;6765668;85;99413;-84
2021/10/31 06:52:31;;;;;;;27.80;14.47;;;;;;;8.17;75.09;100266.89;6760100;85;98888;-84
2021/10/31 07:02:32;;;;;;;27.47;15.40;;;;;;;8.24;74.93;100265.66;6759941;85;98885;-86
2021/10/31 07:12:33;;;;;;;28.57;14.70;;;;;;;8.33;74.95;100277.76;6769016;85;98991;-84
2021/10/31 07:22:34;;;;;;;27.80;15.37;;;;;;;8.54;74.83;100287.73;6715100;85;134874;-85
2021/10/31 07:32:35;;;;;;;24.10;14.53;;;;;;;8.79;74.66;100290.30;6714824;84;99090;-84
2021/10/31 07:42:37;;;;;;;25.50;14.23;;;;;;;9.10;74.36;100300.98;6717888;86;99108;-85
2021/10/31 07:52:43;;;;;;;25.80;14.37;;;;;;;9.47;73.92;100310.12;6720637;84;99315;-87
2021/10/31 08:02:41;;;;;;;24.67;14.53;;;;;;;9.86;73.60;100310.06;6553394;86;99223;-84
2021/10/31 08:12:41;;;;;;;25.67;14.80;;;;;;;10.32;73.03;100310.00;6704497;85;99085;-85
2021/10/31 08:22:42;;;;;;;24.20;14.70;;;;;;;10.92;72.72;100308.58;6581496;87;99677;-86
2021/10/31 08:32:48;;;;;;;27.90;16.60;;;;;;;11.92;72.29;100320.59;6568703;88;99783;-88
2021/10/31 08:42:48;;;;;;;24.00;15.90;;;;;;;13.33;70.54;100316.83;6726939;86;99687;-85
2021/10/31 08:52:49;;;;;;;23.43;15.63;;;;;;;14.76;68.34;100314.78;6717723;86;99260;-87
2021/10/31 09:02:51;;;;;;;21.55;15.68;;;;;;;16.17;65.98;100305.19;6782989;85;99264;-89
2021/10/31 09:12:52;;;;;;;23.00;15.17;;;;;;;17.16;62.26;100308.02;6585162;88;103227;-88
2021/10/31 09:22:54;;;;;;;24.47;15.67;;;;;;;17.72;59.69;100296.47;6842267;84;99495;-91
2021/10/31 09:32:56;;;;;;;54.70;38.58;;;;;;;18.57;58.75;100299.80;6845843;84;99170;-90
2021/10/31 09:43:00;;;;;;;27.80;17.03;;;;;;;19.01;56.73;100280.22;6831233;84;99312;-89
2021/10/31 09:53:05;;;;;;;27.00;16.43;;;;;;;19.18;54.24;100277.58;6618826;86;100903;-93
2021/10/31 10:03:35;;;;;;;23.77;14.90;;;;;;;19.35;53.46;100261.77;6631664;87;99814;-93
2021/10/31 10:13:31;;;;;;;26.70;16.47;;;;;;;18.90;52.23;100258.16;6629878;86;99484;-92
2021/10/31 10:23:57;;;;;;;19.80;13.65;;;;;;;19.18;52.45;100248.28;6649390;86;1513988;-94
2021/10/31 10:33:59;;;;;;;24.37;16.25;;;;;;;19.45;51.55;100246.73;6592452;86;2518745;-89
2021/10/31 10:44:23;;;;;;;22.97;14.37;;;;;;;19.53;51.22;100232.77;6614187;86;99806;-92
2021/10/31 10:54:24;;;;;;;22.67;14.67;;;;;;;19.65;50.85;100215.86;6620530;87;99614;-93
2021/10/31 11:04:31;;;;;;;19.97;13.57;;;;;;;19.64;51.36;100216.49;6634000;87;105929;-90
2021/10/31 11:14:32;;;;;;;40.20;22.13;;;;;;;19.57;50.37;100213.89;6603203;86;100009;-89
2021/10/31 11:24:34;;;;;;;28.73;17.93;;;;;;;19.32;50.57;100186.52;6672867;86;100105;-92
2021/10/31 11:34:35;;;;;;;20.53;13.83;;;;;;;19.29;51.29;100199.97;6680453;86;99991;-92
2021/10/31 11:45:02;;;;;;;20.63;13.40;;;;;;;19.26;51.10;100184.09;6684195;85;240178;-90
2021/10/31 11:55:29;;;;;;;18.80;12.70;;;;;;;19.18;51.30;100165.34;6673251;86;99352;-89
2021/10/31 12:05:38;;;;;;;20.10;12.83;;;;;;;19.04;50.46;100167.15;6574968;86;100177;-90
2021/10/31 12:15:39;;;;;;;21.10;13.37;;;;;;;18.94;51.12;100166.83;6673949;86;99398;-90
2021/10/31 12:25:40;;;;;;;16.87;11.73;;;;;;;18.85;50.98;100165.27;6580630;87;99240;-90
2021/10/31 12:35:45;;;;;;;19.80;13.17;;;;;;;18.77;51.07;100149.16;6812105;84;99289;-88
2021/10/31 12:45:45;;;;;;;22.00;12.30;;;;;;;18.72;51.09;100138.55;6795902;84;99473;-91
2021/10/31 12:55:48;;;;;;;21.63;13.30;;;;;;;18.55;51.91;100121.08;6803209;85;99297;-90
2021/10/31 13:05:55;;;;;;;16.77;11.00;;;;;;;18.46;51.70;100121.50;6798386;84;99583;-89
2021/10/31 13:16:01;;;;;;;22.00;12.60;;;;;;;18.37;51.93;100115.16;6793592;85;99233;-89
2021/10/31 13:26:08;;;;;;;18.57;11.53;;;;;;;18.25;52.75;100094.94;6789510;84;99225;-90
2021/10/31 13:36:23;;;;;;;19.40;11.63;;;;;;;18.14;53.20;100109.75;6781089;85;2008156;-90
2021/10/31 13:46:24;;;;;;;21.57;13.27;;;;;;;18.00;53.50;100095.39;6817140;84;99633;-92
2021/10/31 13:56:26;;;;;;;20.57;12.50;;;;;;;17.84;54.14;100100.34;6795585;85;99284;-89
2021/10/31 14:06:29;;;;;;;18.13;11.87;;;;;;;17.61;54.34;100094.14;6805042;85;99267;-88
2021/10/31 14:16:30;;;;;;;18.73;11.83;;;;;;;17.36;54.69;100079.95;6816595;83;99569;-88
2021/10/31 14:26:32;;;;;;;18.27;11.30;;;;;;;17.08;55.29;100067.45;6786413;85;122233;-89
2021/10/31 14:36:33;;;;;;;20.47;12.63;;;;;;;16.81;55.61;100072.97;6763926;85;99627;-89
2021/10/31 14:46:48;;;;;;;16.97;10.95;;;;;;;16.50;55.73;100060.47;6803046;84;99498;-88
2021/10/31 14:57:48;;;;;;;19.10;11.70;;;;;;;16.26;56.25;100072.20;6787073;85;99523;-87
2021/10/31 15:07:01;;;;;;;22.67;12.60;;;;;;;15.97;56.77;100063.38;6763836;85;101476;-86
2021/10/31 15:17:02;;;;;;;20.85;12.93;;;;;;;15.72;57.13;100064.37;6585783;87;102470;-86
2021/10/31 15:27:03;;;;;;;19.27;11.73;;;;;;;15.40;57.45;100061.28;6613108;86;99549;-87
2021/10/31 15:37:04;;;;;;;21.57;12.27;;;;;;;15.12;58.27;100066.60;6697115;86;99793;-89
2021/10/31 15:47:07;;;;;;;28.77;13.88;;;;;;;14.86;59.00;100060.98;6646189;86;4541809;-86
2021/10/31 15:57:08;;;;;;;23.27;13.85;;;;;;;14.63;59.74;100056.12;6638887;87;100246;-88
2021/10/31 16:07:08;;;;;;;22.57;15.10;;;;;;;14.30;60.62;100031.16;6707969;85;99593;-87
2021/10/31 16:17:10;;;;;;;24.97;15.17;;;;;;;14.07;61.57;100039.27;6682495;86;99272;-88
2021/10/31 16:27:14;;;;;;;27.27;15.13;;;;;;;13.81;62.72;100032.39;6685885;86;99584;-87
2021/10/31 16:37:14;;;;;;;30.70;17.63;;;;;;;13.58;63.27;100024.47;6795563;84;113724;-87
2021/10/31 16:47:20;;;;;;;32.58;18.85;;;;;;;13.36;63.98;100018.30;6794596;84;99549;-89
2021/10/31 16:57:21;;;;;;;29.63;17.60;;;;;;;13.17;64.78;100011.12;6814910;84;99688;-87
2021/10/31 17:07:28;;;;;;;31.87;19.32;;;;;;;13.06;65.61;100020.06;6813713;84;99505;-88
2021/10/31 17:17:29;;;;;;;38.58;20.40;;;;;;;12.91;66.15;100008.89;6795935;85;99362;-88
2021/10/31 17:27:30;;;;;;;35.77;21.00;;;;;;;12.75;66.86;100004.42;6791392;84;100991;-87
2021/10/31 17:37:31;;;;;;;40.98;23.92;;;;;;;12.50;68.23;100000.97;6789882;84;209782;-87
2021/10/31 17:47:32;;;;;;;49.33;24.83;;;;;;;12.50;68.23;100000.97;6785274;84;102836;-87
2021/10/31 17:57:35;;;;;;;39.27;22.00;;;;;;;12.36;68.60;99992.14;6795211;85;99488;-88
2021/10/31 18:07:36;;;;;;;38.58;21.85;;;;;;;12.27;68.97;99983.48;6791182;85;99426;-88
2021/10/31 18:17:39;;;;;;;36.13;21.42;;;;;;;12.21;69.28;99966.38;6838094;84;99611;-90
2021/10/31 18:27:40;;;;;;;37.10;21.33;;;;;;;12.12;69.33;99953.59;6792318;85;99511;-86
2021/10/31 18:37:45;;;;;;;37.37;21.23;;;;;;;12.00;69.69;99941.61;6791173;85;99453;-87
2021/10/31 18:47:48;;;;;;;32.00;18.93;;;;;;;11.89;70.12;99924.30;6802837;84;99745;-90
2021/10/31 18:57:50;;;;;;;31.45;19.10;;;;;;;11.79;70.14;99913.50;6802774;84;99402;-88
2021/10/31 19:07:51;;;;;;;34.18;20.20;;;;;;;11.69;70.25;99910.75;6809666;84;99098;-88
2021/10/31 19:17:52;;;;;;;38.57;22.00;;;;;;;11.57;70.31;99896.77;6803470;85;99131;-88
2021/10/31 19:27:53;;;;;;;32.03;18.83;;;;;;;11.48;70.47;99878.47;6730945;86;99133;-89
2021/10/31 19:37:54;;;;;;;34.70;19.43;;;;;;;11.38;70.74;99854.47;6723902;86;99138;-89
2021/10/31 19:47:55;;;;;;;33.57;19.23;;;;;;;11.33;70.90;99845.23;6712669;84;99169;-86
2021/10/31 19:57:55;;;;;;;32.03;19.43;;;;;;;11.24;70.99;99829.68;6707745;86;99068;-87
2021/10/31 20:07:56;;;;;;;35.90;18.27;;;;;;;11.16;71.22;99829.51;6707733;85;108180;-85
2021/10/31 20:17:58;;;;;;;38.90;22.97;;;;;;;11.07;71.05;99818.09;6720174;86;99622;-86
2021/10/31 20:27:59;;;;;;;35.50;20.03;;;;;;;10.97;71.31;99802.97;6812947;84;99090;-87
2021/10/31 20:38:01;;;;;;;33.87;20.13;;;;;;;10.86;71.34;99797.45;6829567;85;197192;-92
2021/10/31 20:48:04;;;;;;;34.08;18.98;;;;;;;10.74;71.60;99782.72;6824389;84;140434;-88
2021/10/31 20:58:21;;;;;;;33.13;18.02;;;;;;;10.55;71.82;99756.98;6804617;84;99253;-90
2021/10/31 21:08:15;;;;;;;32.80;18.57;;;;;;;10.52;71.85;99755.00;6826272;84;99403;-90
2021/10/31 21:18:16;;;;;;;35.80;18.40;;;;;;;10.41;72.03;99736.94;6809600;84;99878;-88
2021/10/31 21:28:17;;;;;;;32.00;17.57;;;;;;;10.28;72.03;99724.73;6806702;84;109486;-85
2021/10/31 21:38:19;;;;;;;29.02;17.27;;;;;;;10.19;72.18;99714.11;6829608;84;145648;-86
2021/10/31 21:48:20;;;;;;;30.13;17.07;;;;;;;10.10;72.22;99704.11;6826166;84;99737;-85
2021/10/31 21:58:21;;;;;;;30.75;17.32;;;;;;;10.01;72.26;99691.86;6807121;84;99718;-86
2021/10/31 22:08:21;;;;;;;31.40;16.37;;;;;;;9.94;72.29;99684.99;6813396;84;132515;-85
2021/10/31 22:18:24;;;;;;;29.17;15.40;;;;;;;9.85;72.26;99676.33;6825554;84;99385;-85
2021/10/31 22:28:29;;;;;;;27.20;15.43;;;;;;;9.76;72.47;99662.20;6817607;84;99325;-86
2021/10/31 22:38:28;;;;;;;30.37;15.17;;;;;;;9.67;72.79;99642.54;6828737;84;99290;-87
2021/10/31 22:48:28;;;;;;;26.87;15.10;;;;;;;9.59;72.73;99625.86;6822970;84;99355;-86
2021/10/31 22:58:29;;;;;;;27.83;15.03;;;;;;;9.51;72.83;99610.52;6820995;84;98773;-86
2021/10/31 23:08:31;;;;;;;30.02;15.08;;;;;;;9.49;72.95;99606.02;6810348;84;99081;-87
2021/10/31 23:18:32;;;;;;;26.33;14.13;;;;;;;9.45;72.85;99600.52;6819793;84;116660;-86
2021/10/31 23:28:33;;;;;;;27.45;14.85;;;;;;;9.48;72.75;99583.86;6845275;84;100312;-85
2021/10/31 23:38:34;;;;;;;29.50;14.47;;;;;;;9.42;72.79;99584.81;6823764;84;99607;-84
2021/10/31 23:48:35;;;;;;;29.70;15.03;;;;;;;9.37;73.01;99564.59;6824085;84;99290;-85
2021/10/31 23:58:36;;;;;;;30.40;15.50;;;;;;;9.31;73.05;99546.94;6817922;84;99120;-86
